This is the latest recevied weather packets stored in our database for station/object GW1480. If no packets are shown the sender has not sent any weather packets the latest 10 day(s).
| Time | Temp. | Humidity | Pressure | Rain* | Wind** | Luminosity | Snow |
|---|---|---|---|---|---|---|---|
| 1777698588 | 5.56° C | 95% | 1019.6 hPa | 0 mm | - | - | - |
| 1777696791 | 6.11° C | 94% | 1019.9 hPa | 0 mm | - | - | - |
| 1777693193 | 7.78° C | 90% | 1019.6 hPa | 0 mm | - | - | - |
| 1777689589 | 10° C | 79% | 1019.6 hPa | 0 mm | - | - | - |
| 1777685993 | 11.11° C | 69% | 1018.6 hPa | 0 mm | - | - | - |
| 1777684176 | 11.67° C | 70% | 1017.9 hPa | 0 mm | - | - | - |
| 1777683078 | 11.67° C | 70% | 1017.6 hPa | 0 mm | - | - | - |
| 1777682355 | 11.67° C | 73% | 1017.2 hPa | 0 mm | - | - | - |
| 1777680563 | 12.22° C | 75% | 1016.9 hPa | 0 mm | - | - | - |
| 1777678410 | 13.33° C | 69% | 1015.9 hPa | 0 mm | - | - | - |
| 1777677679 | 13.33° C | 69% | 1015.9 hPa | 0 mm | - | - | - |
| 1777676956 | 13.33° C | 67% | 1015.9 hPa | 0 mm | - | - | - |
| 1777674077 | 13.89° C | 66% | 1015.5 hPa | 0 mm | - | - | - |
| 1777672640 | 15° C | 63% | 1015.2 hPa | 0 mm | - | - | - |
| 1777672289 | 15.56° C | 64% | 1015.2 hPa | 0 mm | - | - | - |
| 1777671204 | 15.56° C | 61% | 1015.2 hPa | 0 mm | - | - | - |
| 1777669783 | 16.11° C | 62% | 1014.9 hPa | 0 mm | - | - | - |
| 1777669415 | 16.11° C | 67% | 1014.9 hPa | 0 mm | - | - | - |
| 1777666187 | 18.33° C | 55% | 1014.2 hPa | 0 mm | - | - | - |
| 1777658615 | 18.89° C | 48% | 1014.5 hPa | 0 mm | - | - | - |
| 1777656434 | 18.33° C | 45% | 1014.5 hPa | 0 mm | - | - | - |
| 1777655741 | 18.33° C | 42% | 1014.5 hPa | 0 mm | - | - | - |
| 1777655021 | 17.78° C | 44% | 1014.9 hPa | 0 mm | - | - | - |
| 1777654649 | 17.78° C | 43% | 1015.2 hPa | 0 mm | - | - | - |
| 1777653199 | 17.22° C | 47% | 1014.9 hPa | 0 mm | - | - | - |
* Rain since midnight (hover to see other rain measurements)
** Current wind speed in m/s (hover to see current wind gust speed)